Time;durP1;ratioP1;P1;durP2;ratioP2;P2;SDS_P1;SDS_P2;PMS_P1;PMS_P2;Temp;Humidity;BMP_temperature;BMP_pressure;BME280_temperature;BME280_humidity;BME280_pressure;Samples;Min_cycle;Max_cycle;Signal;HPM_P1;HPM_P2
2021/12/12 00:00:31;;;;;;;42.37;20.87;;;9.40;80.80;;;;;;5049152;28;20264;-75
2021/12/12 00:03:03;;;;;;;39.53;26.37;;;9.40;81.10;;;;;;5049114;28;20245;-73
2021/12/12 00:05:36;;;;;;;37.87;27.00;;;9.40;81.10;;;;;;5046550;28;20280;-71
2021/12/12 00:08:05;;;;;;;64.83;27.40;;;9.40;81.20;;;;;;5030543;28;20196;-72
2021/12/12 00:10:36;;;;;;;34.10;28.43;;;9.40;81.10;;;;;;5032674;28;20296;-73
2021/12/12 00:13:07;;;;;;;30.83;26.80;;;9.40;81.40;;;;;;5032520;28;20293;-73
2021/12/12 00:15:35;;;;;;;50.70;32.33;;;9.40;81.20;;;;;;5047339;28;20686;-73
2021/12/12 00:18:02;;;;;;;67.73;39.17;;;9.50;81.20;;;;;;5048844;28;20275;-73
2021/12/12 00:20:30;;;;;;;66.67;41.93;;;9.50;81.90;;;;;;5043722;28;20231;-73
2021/12/12 00:22:59;;;;;;;69.33;41.10;;;9.50;81.70;;;;;;5032732;28;20672;-72
2021/12/12 00:25:28;;;;;;;65.07;43.10;;;9.50;81.60;;;;;;5032700;28;20330;-75
2021/12/12 00:27:56;;;;;;;48.60;41.60;;;9.50;81.90;;;;;;5037328;28;20671;-73
2021/12/12 00:30:23;;;;;;;61.77;38.57;;;9.50;82.00;;;;;;5030764;28;20196;-72
2021/12/12 00:32:52;;;;;;;66.90;35.47;;;9.50;82.10;;;;;;5034491;28;20658;-72
2021/12/12 00:35:20;;;;;;;51.43;28.63;;;9.50;82.10;;;;;;5045740;28;20974;-72
2021/12/12 00:37:48;;;;;;;40.33;29.93;;;9.50;82.30;;;;;;5029066;28;20224;-73
2021/12/12 00:40:22;;;;;;;46.77;26.60;;;9.50;82.20;;;;;;5041724;28;20198;-73
2021/12/12 00:42:51;;;;;;;43.60;23.80;;;9.60;82.40;;;;;;5047707;28;20275;-75
2021/12/12 00:45:19;;;;;;;48.63;26.33;;;9.60;82.20;;;;;;5048259;28;20302;-74
2021/12/12 00:47:47;;;;;;;40.47;22.07;;;9.60;82.30;;;;;;5044752;28;20236;-73
2021/12/12 00:50:17;;;;;;;35.10;22.10;;;9.60;82.50;;;;;;5028986;28;20779;-73
2021/12/12 00:52:46;;;;;;;43.70;25.90;;;9.60;82.70;;;;;;5048429;28;20620;-72
2021/12/12 00:55:13;;;;;;;37.87;26.60;;;9.60;83.10;;;;;;5036874;28;20692;-73
2021/12/12 00:57:40;;;;;;;54.57;23.63;;;9.60;82.70;;;;;;5045549;28;20627;-72
2021/12/12 01:00:10;;;;;;;38.17;22.60;;;9.60;82.80;;;;;;5041586;28;20199;-75
2021/12/12 01:02:39;;;;;;;40.63;26.60;;;9.70;83.30;;;;;;5042893;28;20276;-72
2021/12/12 01:05:09;;;;;;;41.93;25.47;;;9.70;83.30;;;;;;5046820;28;20258;-72
2021/12/12 01:07:38;;;;;;;31.80;19.63;;;9.70;83.30;;;;;;5047971;28;20277;-73
2021/12/12 01:10:09;;;;;;;44.33;24.70;;;9.70;83.30;;;;;;5045911;28;20200;-73
2021/12/12 01:12:37;;;;;;;48.47;25.53;;;9.70;83.20;;;;;;5044762;28;20285;-71
2021/12/12 01:15:10;;;;;;;36.00;22.30;;;9.70;83.20;;;;;;5047055;28;20322;-73
2021/12/12 01:17:41;;;;;;;40.50;24.13;;;9.70;83.10;;;;;;5047914;28;20261;-73
2021/12/12 01:20:15;;;;;;;28.17;24.17;;;9.70;83.00;;;;;;5042530;28;20301;-73
2021/12/12 01:22:43;;;;;;;33.00;17.87;;;9.80;82.90;;;;;;5034134;28;20251;-72
2021/12/12 01:25:16;;;;;;;49.07;24.50;;;9.70;82.80;;;;;;5029100;28;20230;-72
2021/12/12 01:27:43;;;;;;;37.73;23.83;;;9.80;83.10;;;;;;5028858;28;20224;-73
2021/12/12 01:30:12;;;;;;;39.17;23.60;;;9.80;83.10;;;;;;5029013;28;20287;-74
2021/12/12 01:32:42;;;;;;;40.23;23.97;;;9.80;83.20;;;;;;5034324;28;20232;-76
2021/12/12 01:35:15;;;;;;;36.37;22.50;;;9.80;83.30;;;;;;5047701;28;20228;-73
2021/12/12 01:37:51;;;;;;;42.40;24.10;;;9.80;83.40;;;;;;5046034;28;20214;-74
2021/12/12 01:40:23;;;;;;;44.20;25.73;;;9.80;83.60;;;;;;5037562;28;20198;-73
2021/12/12 01:42:55;;;;;;;38.57;23.27;;;9.80;83.40;;;;;;5034628;28;20633;-74
2021/12/12 01:45:25;;;;;;;38.33;23.13;;;9.70;83.30;;;;;;5038909;28;20309;-74
2021/12/12 01:47:57;;;;;;;53.90;24.53;;;9.80;83.40;;;;;;5045567;28;20560;-72
2021/12/12 01:50:28;;;;;;;38.43;23.60;;;9.80;83.40;;;;;;5042047;28;20283;-72
2021/12/12 01:52:57;;;;;;;43.60;26.27;;;9.70;83.30;;;;;;5045937;28;20228;-74
2021/12/12 01:55:27;;;;;;;39.37;24.60;;;9.80;83.40;;;;;;5047166;28;20220;-72
2021/12/12 01:57:57;;;;;;;48.17;26.47;;;9.80;83.20;;;;;;5033002;28;20207;-73
2021/12/12 02:00:27;;;;;;;45.43;25.70;;;9.80;83.40;;;;;;5036565;28;20199;-73
2021/12/12 02:02:57;;;;;;;47.93;24.47;;;9.80;83.40;;;;;;5033228;28;20286;-72
2021/12/12 02:05:26;;;;;;;34.47;26.10;;;9.80;83.40;;;;;;5030319;28;20307;-73
2021/12/12 02:07:57;;;;;;;33.20;24.43;;;9.80;83.40;;;;;;5028054;28;20290;-76
2021/12/12 02:10:27;;;;;;;39.57;25.73;;;9.80;83.40;;;;;;5044361;28;20203;-73
2021/12/12 02:12:56;;;;;;;32.97;25.67;;;9.80;83.40;;;;;;5048151;28;20328;-73
2021/12/12 02:15:24;;;;;;;35.93;21.77;;;9.80;83.40;;;;;;5028305;28;20231;-73
2021/12/12 02:17:52;;;;;;;41.23;26.13;;;9.80;83.40;;;;;;5027727;28;20244;-73
2021/12/12 02:20:33;;;;;;;30.90;25.30;;;9.80;83.40;;;;;;5045426;28;20213;-73
2021/12/12 02:23:10;;;;;;;33.93;22.73;;;9.80;83.40;;;;;;5031370;28;20923;-73
2021/12/12 02:36:43;;;;;;;35.70;24.90;;;9.80;83.40;;;;;;5037348;28;20265;-72
2021/12/12 02:39:15;;;;;;;48.87;27.60;;;9.80;83.40;;;;;;5040222;28;20294;-72
2021/12/12 02:41:45;;;;;;;46.77;28.43;;;9.90;83.60;;;;;;5031255;28;20220;-73
2021/12/12 02:44:12;;;;;;;37.03;25.40;;;9.80;83.80;;;;;;5043799;28;20858;-73
2021/12/12 02:46:42;;;;;;;32.43;26.17;;;9.80;83.80;;;;;;5027590;28;20298;-72
2021/12/12 02:49:23;;;;;;;33.23;24.17;;;9.90;84.20;;;;;;5028607;28;20207;-73
2021/12/12 02:51:53;;;;;;;31.97;24.97;;;9.90;84.20;;;;;;5044214;28;20313;-72
2021/12/12 02:54:22;;;;;;;40.30;26.53;;;9.90;84.20;;;;;;5042841;28;20310;-74
2021/12/12 02:56:50;;;;;;;39.97;25.83;;;9.80;84.10;;;;;;5049704;28;20273;-74
2021/12/12 02:59:20;;;;;;;35.97;24.63;;;9.90;84.20;;;;;;5049720;28;20206;-73
2021/12/12 03:01:51;;;;;;;39.43;24.83;;;9.90;84.10;;;;;;5031406;28;20294;-73
2021/12/12 03:04:19;;;;;;;37.93;25.67;;;9.90;84.10;;;;;;5030811;28;20698;-73
2021/12/12 03:06:47;;;;;;;51.90;27.93;;;9.90;84.20;;;;;;5047218;28;20706;-72
2021/12/12 03:09:18;;;;;;;31.80;24.60;;;10.00;82.90;;;;;;5034941;28;20729;-72
2021/12/12 03:11:51;;;;;;;42.73;24.47;;;10.00;83.10;;;;;;5030375;28;20232;-72
2021/12/12 03:14:18;;;;;;;36.83;24.33;;;10.00;83.40;;;;;;5044019;28;20214;-72
2021/12/12 03:16:46;;;;;;;40.20;24.47;;;10.00;83.10;;;;;;5049919;28;20283;-72
2021/12/12 03:19:14;;;;;;;44.60;28.17;;;10.00;83.20;;;;;;5039761;28;20201;-72
2021/12/12 03:21:45;;;;;;;39.13;24.87;;;10.00;83.50;;;;;;5034747;28;20216;-72
2021/12/12 03:24:18;;;;;;;33.13;24.50;;;10.00;83.40;;;;;;5048631;28;20253;-72
2021/12/12 03:26:48;;;;;;;44.87;25.17;;;10.00;83.50;;;;;;5048570;28;20738;-72
2021/12/12 03:29:15;;;;;;;49.13;25.50;;;10.10;83.60;;;;;;5035314;28;20251;-73
2021/12/12 03:31:46;;;;;;;38.90;29.03;;;10.10;83.40;;;;;;5045090;28;20251;-71
2021/12/12 03:34:16;;;;;;;38.97;23.53;;;10.10;83.40;;;;;;5032077;28;20323;-72
2021/12/12 03:36:45;;;;;;;42.67;24.73;;;10.20;83.40;;;;;;5034104;28;20606;-73
2021/12/12 03:39:15;;;;;;;54.30;28.40;;;10.20;83.20;;;;;;5043495;28;20744;-72
2021/12/12 03:41:42;;;;;;;32.40;23.40;;;10.20;83.40;;;;;;5050348;28;20293;-73
2021/12/12 03:44:13;;;;;;;32.43;23.43;;;10.20;83.30;;;;;;5050071;28;20223;-73
2021/12/12 03:46:42;;;;;;;36.17;24.67;;;10.20;83.40;;;;;;5038692;28;20274;-73
2021/12/12 03:49:10;;;;;;;40.37;24.83;;;10.30;83.80;;;;;;5046252;28;20296;-73
2021/12/12 03:51:38;;;;;;;44.07;25.33;;;10.30;83.70;;;;;;5044343;28;20229;-72
2021/12/12 03:54:05;;;;;;;43.03;22.83;;;10.30;84.00;;;;;;5036960;28;20258;-72
2021/12/12 03:56:33;;;;;;;36.57;24.67;;;10.30;84.00;;;;;;5040067;28;20259;-72
2021/12/12 03:59:00;;;;;;;31.37;23.80;;;10.30;84.10;;;;;;5044099;28;20285;-72
2021/12/12 04:01:32;;;;;;;36.67;27.50;;;10.40;84.30;;;;;;5048810;28;20281;-72
2021/12/12 04:04:08;;;;;;;34.83;23.77;;;10.40;84.50;;;;;;5047284;28;20220;-72
2021/12/12 04:06:35;;;;;;;41.90;27.93;;;10.40;84.60;;;;;;5048684;28;20319;-72
2021/12/12 04:09:04;;;;;;;39.40;24.67;;;10.40;84.30;;;;;;5033963;28;20225;-72
2021/12/12 04:11:35;;;;;;;32.37;24.77;;;10.40;84.40;;;;;;5044118;28;20200;-72
2021/12/12 04:14:03;;;;;;;41.57;24.43;;;10.40;84.40;;;;;;5029083;28;20260;-73
2021/12/12 04:16:35;;;;;;;38.20;26.10;;;10.50;84.30;;;;;;5038961;28;20235;-73
2021/12/12 04:19:03;;;;;;;38.83;24.10;;;10.50;84.30;;;;;;5048932;28;20223;-73
2021/12/12 04:21:30;;;;;;;32.07;21.03;;;10.50;84.40;;;;;;5032828;28;20318;-73
2021/12/12 04:23:59;;;;;;;53.73;23.87;;;10.50;84.20;;;;;;5033682;28;20313;-73
2021/12/12 04:26:29;;;;;;;43.47;23.00;;;10.60;84.40;;;;;;5043499;28;20230;-72
2021/12/12 04:29:02;;;;;;;47.47;25.77;;;10.60;84.30;;;;;;5041770;28;20711;-74
2021/12/12 04:31:30;;;;;;;39.13;22.40;;;10.60;84.20;;;;;;5033631;28;20285;-72
2021/12/12 04:34:00;;;;;;;29.80;22.33;;;10.60;84.20;;;;;;5029576;28;20316;-73
2021/12/12 04:36:28;;;;;;;39.60;24.00;;;10.60;84.10;;;;;;5035066;28;20333;-75
2021/12/12 04:39:00;;;;;;;45.37;23.07;;;10.60;84.00;;;;;;5043037;28;20201;-73
2021/12/12 04:41:27;;;;;;;64.37;24.87;;;10.60;83.80;;;;;;5042330;28;20287;-72
2021/12/12 04:43:54;;;;;;;30.53;20.43;;;10.60;84.00;;;;;;5029322;28;20220;-73
2021/12/12 04:46:26;;;;;;;31.73;21.57;;;10.60;83.70;;;;;;5038340;28;20679;-74
2021/12/12 04:51:47;;;;;;;39.67;22.17;;;10.70;83.90;;;;;;5030648;28;20775;-73
2021/12/12 04:54:22;;;;;;;40.90;23.10;;;10.70;83.90;;;;;;5047861;28;20257;-73
2021/12/12 04:56:55;;;;;;;44.57;23.70;;;10.60;83.70;;;;;;5039056;28;21048;-75
2021/12/12 04:59:26;;;;;;;39.33;23.13;;;10.70;83.70;;;;;;5032783;28;20197;-73
2021/12/12 05:02:00;;;;;;;35.10;23.30;;;10.70;83.90;;;;;;5045141;28;20307;-75
2021/12/12 05:04:33;;;;;;;42.87;26.83;;;10.70;83.80;;;;;;5039078;28;20219;-73
2021/12/12 05:07:06;;;;;;;38.30;22.20;;;10.70;84.10;;;;;;5038169;28;20291;-72
2021/12/12 05:09:40;;;;;;;31.70;21.67;;;10.70;84.10;;;;;;5046769;28;20603;-72
2021/12/12 05:12:22;;;;;;;35.80;18.73;;;10.70;84.00;;;;;;5047853;28;20258;-73
2021/12/12 05:14:54;;;;;;;42.17;22.97;;;10.70;84.10;;;;;;5045419;28;21080;-73
2021/12/12 05:17:24;;;;;;;38.23;22.40;;;10.80;84.50;;;;;;5047985;28;20227;-72
2021/12/12 05:19:55;;;;;;;39.30;23.73;;;10.70;84.20;;;;;;5038367;28;20240;-73
2021/12/12 05:22:32;;;;;;;37.33;24.67;;;10.80;84.30;;;;;;5030224;28;20312;-73
2021/12/12 05:25:04;;;;;;;37.90;22.77;;;10.80;84.50;;;;;;5029902;28;20307;-73
2021/12/12 05:27:33;;;;;;;37.93;24.27;;;10.80;84.30;;;;;;5028710;28;20327;-76
2021/12/12 05:30:04;;;;;;;53.07;22.10;;;10.80;84.50;;;;;;5040645;28;20295;-72
2021/12/12 05:32:32;;;;;;;38.67;23.03;;;10.90;84.50;;;;;;5036261;28;20317;-73
2021/12/12 05:35:01;;;;;;;43.27;23.57;;;10.90;84.50;;;;;;5028019;28;20263;-73
2021/12/12 05:37:30;;;;;;;38.73;22.43;;;10.90;84.60;;;;;;5033572;28;20233;-72
2021/12/12 05:40:02;;;;;;;53.63;23.67;;;10.90;84.50;;;;;;5042684;28;20956;-73
2021/12/12 05:42:30;;;;;;;35.27;22.63;;;10.90;84.50;;;;;;5044382;28;20269;-74
2021/12/12 05:44:59;;;;;;;41.57;23.53;;;10.90;84.40;;;;;;5047594;28;20771;-73
2021/12/12 05:47:27;;;;;;;39.70;22.50;;;10.90;84.40;;;;;;5048534;28;20933;-74
2021/12/12 05:49:54;;;;;;;44.37;22.43;;;11.00;84.50;;;;;;5046659;28;20192;-73
2021/12/12 05:52:22;;;;;;;41.50;22.20;;;11.00;84.50;;;;;;5047317;28;20338;-73
2021/12/12 05:54:52;;;;;;;44.77;23.53;;;11.00;84.40;;;;;;5047456;28;20220;-74
2021/12/12 05:57:24;;;;;;;46.50;22.53;;;11.00;84.50;;;;;;5047239;28;20315;-74
2021/12/12 05:59:52;;;;;;;42.93;20.87;;;11.00;84.40;;;;;;5042925;28;20243;-73
2021/12/12 06:02:20;;;;;;;45.27;24.93;;;11.10;84.70;;;;;;5039135;28;20232;-73
2021/12/12 06:04:47;;;;;;;46.07;22.87;;;11.10;84.50;;;;;;5027384;28;20252;-75
2021/12/12 06:07:16;;;;;;;39.33;22.40;;;11.10;84.50;;;;;;5028998;28;20549;-73
2021/12/12 06:09:46;;;;;;;62.53;27.00;;;11.10;84.80;;;;;;5029084;28;20247;-73
2021/12/12 06:12:15;;;;;;;77.97;25.70;;;11.10;84.80;;;;;;5042865;28;20296;-73
2021/12/12 06:14:43;;;;;;;57.67;24.07;;;11.10;85.00;;;;;;5044322;28;20248;-73
2021/12/12 06:17:13;;;;;;;36.17;23.37;;;11.10;84.70;;;;;;5041089;28;20238;-75
2021/12/12 06:19:42;;;;;;;52.23;25.60;;;11.20;85.60;;;;;;5045890;28;20288;-72
2021/12/12 06:22:10;;;;;;;40.93;22.20;;;11.20;85.00;;;;;;5032192;28;20283;-73
2021/12/12 06:24:39;;;;;;;39.00;22.73;;;11.20;85.00;;;;;;5039450;28;20244;-71
2021/12/12 06:27:09;;;;;;;50.23;22.93;;;11.20;85.00;;;;;;5030741;28;20879;-72
2021/12/12 06:29:39;;;;;;;56.77;22.63;;;11.20;85.00;;;;;;5043616;28;21003;-72
2021/12/12 06:32:06;;;;;;;39.43;21.97;;;11.20;84.90;;;;;;5042395;28;20280;-73
2021/12/12 06:34:34;;;;;;;39.20;24.17;;;11.20;85.20;;;;;;5030918;28;20223;-72
2021/12/12 06:37:03;;;;;;;46.43;23.20;;;11.20;85.00;;;;;;5044119;28;20215;-72
2021/12/12 06:39:31;;;;;;;38.50;22.67;;;11.30;85.60;;;;;;5051368;28;20307;-73
2021/12/12 06:41:58;;;;;;;57.00;24.40;;;11.30;85.50;;;;;;5050765;28;20199;-72
2021/12/12 06:44:25;;;;;;;46.87;24.50;;;11.30;85.10;;;;;;5051269;28;20314;-72
2021/12/12 06:46:54;;;;;;;41.67;25.70;;;11.30;85.10;;;;;;5051477;28;20625;-72
2021/12/12 06:49:23;;;;;;;51.13;26.17;;;11.30;85.30;;;;;;5040008;28;20251;-75
2021/12/12 06:51:54;;;;;;;46.43;24.60;;;11.30;85.10;;;;;;5031156;28;20621;-73
2021/12/12 06:54:24;;;;;;;50.73;27.33;;;11.30;85.40;;;;;;5035266;28;20244;-72
2021/12/12 06:56:53;;;;;;;52.73;25.73;;;11.30;85.40;;;;;;5037344;28;20385;-73
2021/12/12 06:59:22;;;;;;;45.07;23.27;;;11.30;85.20;;;;;;5047665;28;20292;-72
2021/12/12 07:01:50;;;;;;;43.30;25.10;;;11.40;85.40;;;;;;5030972;28;20236;-71
2021/12/12 07:04:20;;;;;;;49.30;24.03;;;11.40;85.30;;;;;;5043202;28;20220;-73
2021/12/12 07:06:48;;;;;;;43.13;24.80;;;11.40;85.60;;;;;;5050810;28;20287;-74
2021/12/12 07:09:15;;;;;;;82.67;27.03;;;11.40;85.60;;;;;;5037207;28;20316;-73
2021/12/12 07:11:44;;;;;;;44.50;23.97;;;11.40;85.60;;;;;;5037313;28;20712;-72
2021/12/12 07:14:12;;;;;;;45.70;23.60;;;11.50;85.80;;;;;;5049613;28;20299;-72
2021/12/12 07:16:41;;;;;;;50.93;24.63;;;11.40;85.70;;;;;;5048502;28;20318;-72
2021/12/12 07:19:08;;;;;;;55.40;26.20;;;11.40;85.60;;;;;;5038189;28;20224;-73
2021/12/12 07:21:37;;;;;;;45.13;24.97;;;11.40;85.70;;;;;;5049696;28;20246;-72
2021/12/12 07:24:06;;;;;;;58.17;25.03;;;11.50;86.00;;;;;;5049616;28;20270;-72
2021/12/12 07:26:34;;;;;;;45.87;25.67;;;11.50;85.80;;;;;;5048137;28;20231;-72
2021/12/12 07:29:02;;;;;;;45.13;22.90;;;11.50;86.10;;;;;;5041316;28;20257;-72
2021/12/12 07:31:31;;;;;;;49.93;26.30;;;11.50;86.00;;;;;;5048701;28;21023;-72
2021/12/12 07:34:01;;;;;;;55.47;25.13;;;11.50;86.00;;;;;;5048219;28;20258;-72
2021/12/12 07:36:31;;;;;;;43.23;21.03;;;11.50;86.60;;;;;;5050655;28;20266;-72
2021/12/12 07:39:02;;;;;;;50.73;23.23;;;11.60;85.90;;;;;;5045177;28;20744;-74
2021/12/12 07:41:31;;;;;;;41.33;21.50;;;11.50;86.10;;;;;;5048690;28;20236;-72
2021/12/12 07:44:01;;;;;;;48.67;25.33;;;11.60;86.00;;;;;;5043181;28;20267;-74
2021/12/12 07:46:29;;;;;;;51.10;24.10;;;11.60;86.10;;;;;;5029754;28;20677;-72
2021/12/12 07:48:57;;;;;;;45.43;23.40;;;11.60;85.90;;;;;;5030296;28;20324;-72
2021/12/12 07:51:25;;;;;;;43.83;22.83;;;11.60;86.00;;;;;;5029900;28;20566;-73
2021/12/12 07:53:57;;;;;;;50.77;22.27;;;11.70;86.30;;;;;;5046990;28;20675;-73
2021/12/12 07:56:30;;;;;;;43.97;23.03;;;11.70;87.00;;;;;;5044946;28;20224;-72
2021/12/12 07:59:00;;;;;;;56.13;25.00;;;11.70;86.20;;;;;;5030946;28;20205;-73
2021/12/12 08:01:27;;;;;;;45.47;20.93;;;11.70;86.20;;;;;;5029873;28;20209;-73
2021/12/12 08:03:56;;;;;;;41.67;21.63;;;11.80;86.30;;;;;;5043530;28;20316;-72
2021/12/12 08:06:24;;;;;;;36.13;19.73;;;11.80;86.40;;;;;;5030140;28;20207;-73
2021/12/12 08:08:53;;;;;;;45.57;21.07;;;11.80;86.40;;;;;;5032345;28;20224;-73
2021/12/12 08:11:23;;;;;;;41.40;23.00;;;11.80;86.60;;;;;;5043650;28;20211;-74
2021/12/12 08:13:51;;;;;;;40.20;22.93;;;11.80;86.70;;;;;;5044142;28;20637;-74
2021/12/12 08:16:20;;;;;;;47.40;21.33;;;11.80;86.50;;;;;;5049211;28;20967;-74
2021/12/12 08:18:48;;;;;;;44.73;18.90;;;11.90;86.50;;;;;;5048799;28;20295;-72
2021/12/12 08:21:17;;;;;;;43.40;20.20;;;11.80;86.40;;;;;;5048946;28;20201;-74
2021/12/12 08:23:45;;;;;;;42.20;21.47;;;11.90;86.40;;;;;;5049502;28;20235;-72
2021/12/12 08:26:12;;;;;;;52.00;19.80;;;11.90;86.40;;;;;;5048384;28;20291;-72
2021/12/12 08:28:40;;;;;;;41.20;20.43;;;11.90;86.30;;;;;;5048903;28;20200;-75
2021/12/12 08:31:09;;;;;;;75.67;22.80;;;11.90;86.20;;;;;;5047209;28;20664;-72
2021/12/12 08:33:36;;;;;;;50.63;22.17;;;11.90;86.50;;;;;;5036974;28;20312;-70
2021/12/12 08:36:03;;;;;;;49.03;23.73;;;12.00;86.50;;;;;;5036845;28;20201;-70
2021/12/12 08:38:31;;;;;;;57.53;26.90;;;12.00;86.30;;;;;;5035576;28;20197;-71
2021/12/12 08:41:01;;;;;;;45.43;21.30;;;12.00;86.50;;;;;;5036810;28;20193;-71
2021/12/12 08:43:30;;;;;;;50.07;21.83;;;12.00;86.70;;;;;;5036364;28;20224;-71
2021/12/12 08:46:02;;;;;;;43.17;21.77;;;12.00;86.40;;;;;;5037375;28;20204;-72
2021/12/12 08:48:32;;;;;;;47.77;22.10;;;12.00;86.80;;;;;;5037184;28;20277;-71
2021/12/12 08:51:03;;;;;;;55.77;21.43;;;12.10;86.60;;;;;;5035897;28;20287;-71
2021/12/12 08:53:30;;;;;;;46.30;22.80;;;12.10;86.60;;;;;;5036378;28;20212;-72
2021/12/12 08:55:59;;;;;;;46.27;22.57;;;12.10;86.50;;;;;;5033394;28;20204;-71
2021/12/12 08:58:30;;;;;;;51.10;21.57;;;12.10;86.70;;;;;;5033098;28;20200;-73
2021/12/12 09:00:59;;;;;;;74.73;22.53;;;12.10;86.70;;;;;;5037827;28;20203;-72
2021/12/12 09:03:34;;;;;;;44.97;18.93;;;12.10;86.50;;;;;;5034963;28;20196;-72
2021/12/12 09:06:01;;;;;;;53.13;23.87;;;12.20;86.80;;;;;;5036031;28;20275;-73
2021/12/12 09:08:36;;;;;;;45.37;20.23;;;12.20;87.00;;;;;;5034625;28;20285;-73
2021/12/12 09:11:08;;;;;;;50.47;22.00;;;12.20;87.00;;;;;;5033654;28;20327;-73
2021/12/12 09:13:40;;;;;;;71.90;22.40;;;12.20;87.00;;;;;;5034721;28;20295;-76
2021/12/12 09:16:12;;;;;;;47.23;22.33;;;12.20;87.10;;;;;;5035429;28;20758;-77
2021/12/12 09:18:46;;;;;;;45.33;22.20;;;12.20;87.00;;;;;;5036674;28;20201;-73
2021/12/12 09:21:23;;;;;;;43.27;19.20;;;12.30;87.30;;;;;;5036480;28;20227;-72
2021/12/12 09:24:01;;;;;;;49.10;21.37;;;12.30;87.10;;;;;;5035660;28;20228;-73
2021/12/12 09:26:31;;;;;;;40.03;19.50;;;12.30;87.20;;;;;;5035543;28;20294;-73
2021/12/12 09:29:09;;;;;;;50.67;23.77;;;12.30;87.40;;;;;;5047029;28;20199;-72
2021/12/12 09:31:42;;;;;;;45.33;21.40;;;12.30;87.40;;;;;;5047779;28;20189;-72
2021/12/12 09:34:17;;;;;;;42.03;20.53;;;12.40;87.60;;;;;;5047803;28;20603;-76
2021/12/12 09:36:48;;;;;;;119.80;26.27;;;12.40;87.60;;;;;;5033824;28;20942;-73
2021/12/12 09:39:20;;;;;;;56.27;21.47;;;12.40;87.60;;;;;;5031787;28;20205;-74
2021/12/12 09:42:00;;;;;;;55.70;22.27;;;12.50;87.70;;;;;;5035279;28;20564;-73
2021/12/12 09:44:55;;;;;;;61.47;24.13;;;12.50;87.70;;;;;;5033654;28;20264;-74
2021/12/12 09:47:57;;;;;;;49.47;22.13;;;12.50;87.70;;;;;;5033410;28;20287;-74
2021/12/12 09:53:47;;;;;;;41.77;21.80;;;12.60;87.60;;;;;;5035392;28;20219;-73
2021/12/12 09:56:23;;;;;;;50.70;22.77;;;12.60;87.80;;;;;;5034118;28;20227;-75
2021/12/12 09:58:56;;;;;;;57.50;21.77;;;12.60;87.60;;;;;;5033207;28;20207;-78
2021/12/12 10:01:27;;;;;;;73.60;25.50;;;12.70;87.90;;;;;;5037027;28;20677;-72
2021/12/12 10:04:16;;;;;;;54.50;22.67;;;12.70;87.70;;;;;;5039996;28;20313;-73
2021/12/12 10:06:52;;;;;;;49.83;22.77;;;12.70;87.90;;;;;;5037926;28;20235;-69
2021/12/12 10:09:24;;;;;;;69.77;24.27;;;12.70;87.90;;;;;;5037165;28;20715;-76
2021/12/12 10:12:01;;;;;;;67.27;22.43;;;12.80;87.90;;;;;;5042586;28;20298;-77
2021/12/12 10:14:35;;;;;;;54.57;22.80;;;12.80;87.80;;;;;;5050347;28;20311;-70
2021/12/12 10:17:12;;;;;;;52.10;22.67;;;12.80;88.00;;;;;;5038100;28;20242;-73
2021/12/12 10:19:48;;;;;;;40.43;21.47;;;12.90;88.60;;;;;;5048223;28;20298;-73
2021/12/12 10:22:25;;;;;;;74.63;23.57;;;12.90;87.80;;;;;;5043054;28;20213;-73
2021/12/12 10:25:00;;;;;;;64.47;22.67;;;12.90;87.80;;;;;;5046260;28;20740;-72
2021/12/12 10:27:34;;;;;;;54.10;22.77;;;13.00;88.00;;;;;;5047136;28;20205;-73
2021/12/12 10:30:11;;;;;;;49.17;20.70;;;13.00;87.90;;;;;;5036254;28;20200;-72
2021/12/12 10:32:47;;;;;;;40.57;21.63;;;13.00;87.90;;;;;;5038229;28;20190;-73
2021/12/12 10:35:20;;;;;;;49.90;21.27;;;13.10;87.80;;;;;;5041851;28;20353;-72
2021/12/12 10:37:54;;;;;;;74.70;21.87;;;13.10;87.70;;;;;;5034363;28;20255;-73
2021/12/12 10:40:28;;;;;;;42.27;19.10;;;13.10;87.70;;;;;;5040050;28;20608;-74
2021/12/12 10:43:00;;;;;;;39.17;19.33;;;13.10;87.60;;;;;;5049138;28;20313;-73
2021/12/12 10:45:30;;;;;;;46.00;18.07;;;13.20;87.60;;;;;;5049887;28;20246;-71
2021/12/12 10:48:01;;;;;;;57.60;20.20;;;13.20;87.60;;;;;;5050804;28;20207;-72
2021/12/12 10:50:41;;;;;;;41.23;18.67;;;13.30;87.70;;;;;;5042477;28;20300;-72
2021/12/12 10:53:21;;;;;;;46.33;18.60;;;13.20;87.60;;;;;;5049640;28;20204;-72
2021/12/12 10:55:54;;;;;;;39.13;16.40;;;13.30;87.70;;;;;;5033534;28;20290;-71
2021/12/12 10:58:27;;;;;;;42.60;16.93;;;13.30;87.70;;;;;;5039992;28;20260;-73
2021/12/12 11:00:58;;;;;;;51.40;18.47;;;13.40;87.70;;;;;;5035896;28;20200;-73
2021/12/12 11:03:32;;;;;;;38.80;17.17;;;13.40;87.60;;;;;;5032737;28;20202;-72
2021/12/12 11:06:04;;;;;;;78.23;19.23;;;13.40;87.50;;;;;;5034686;28;20291;-72
2021/12/12 11:08:38;;;;;;;41.73;17.57;;;13.40;87.50;;;;;;5035168;28;20741;-73
2021/12/12 11:11:13;;;;;;;35.83;15.40;;;13.50;87.60;;;;;;5044476;28;20208;-73
2021/12/12 11:13:44;;;;;;;79.87;19.77;;;13.50;87.50;;;;;;5047470;28;20321;-73
2021/12/12 11:16:16;;;;;;;37.47;18.03;;;13.50;87.40;;;;;;5047653;28;20197;-73
2021/12/12 11:18:47;;;;;;;50.43;17.20;;;13.50;87.40;;;;;;5030287;28;20326;-73
2021/12/12 11:21:18;;;;;;;47.10;18.07;;;13.60;87.50;;;;;;5031296;28;20205;-73
2021/12/12 11:23:51;;;;;;;68.53;19.80;;;13.60;87.40;;;;;;5037138;28;20317;-73
2021/12/12 11:26:21;;;;;;;42.20;17.93;;;13.60;87.40;;;;;;5038557;28;20289;-73
2021/12/12 11:28:53;;;;;;;52.23;17.20;;;13.60;87.40;;;;;;5036955;28;20206;-72
2021/12/12 11:31:24;;;;;;;47.20;17.63;;;13.70;87.50;;;;;;5038076;28;20294;-72
2021/12/12 11:33:53;;;;;;;56.67;18.70;;;13.70;87.50;;;;;;5035926;28;20706;-73
2021/12/12 11:36:25;;;;;;;47.40;16.07;;;13.70;87.50;;;;;;5041605;28;20289;-71
2021/12/12 11:39:05;;;;;;;30.47;15.80;;;13.70;87.50;;;;;;5044571;28;20234;-72
2021/12/12 11:41:38;;;;;;;35.33;14.47;;;13.80;87.60;;;;;;5041875;28;20320;-73
2021/12/12 11:44:14;;;;;;;46.13;15.17;;;13.80;87.60;;;;;;5045476;28;20263;-73
2021/12/12 11:46:49;;;;;;;26.73;13.37;;;13.80;87.50;;;;;;5044028;28;20292;-73
2021/12/12 11:49:23;;;;;;;46.17;13.80;;;13.90;87.60;;;;;;5047698;28;20199;-73
2021/12/12 11:51:55;;;;;;;38.20;13.87;;;13.80;87.60;;;;;;5047475;28;20296;-73
2021/12/12 11:54:34;;;;;;;43.63;14.83;;;13.90;87.60;;;;;;5043092;28;20225;-73
2021/12/12 11:57:06;;;;;;;41.20;13.50;;;13.90;87.70;;;;;;5029859;28;20677;-73
2021/12/12 11:59:41;;;;;;;41.73;14.10;;;14.00;87.70;;;;;;5034123;28;20302;-73
2021/12/12 12:02:30;;;;;;;40.07;13.97;;;14.00;87.70;;;;;;5047357;28;20736;-75
2021/12/12 12:05:09;;;;;;;43.80;15.30;;;14.00;87.90;;;;;;5034689;28;20305;-73
2021/12/12 12:07:47;;;;;;;43.23;14.03;;;14.10;88.70;;;;;;5030447;28;20764;-73
2021/12/12 12:10:26;;;;;;;73.50;17.47;;;14.10;87.90;;;;;;5030105;28;20715;-73
2021/12/12 12:13:07;;;;;;;66.70;15.80;;;14.10;88.00;;;;;;5034017;28;20286;-73
2021/12/12 12:15:47;;;;;;;70.60;15.47;;;14.20;88.30;;;;;;5034574;28;20309;-74
2021/12/12 12:18:30;;;;;;;69.57;16.60;;;14.20;88.30;;;;;;5030053;28;20237;-74
2021/12/12 12:21:05;;;;;;;49.63;13.43;;;14.20;88.40;;;;;;5035365;28;20326;-73
2021/12/12 12:23:59;;;;;;;59.07;14.57;;;14.30;88.40;;;;;;5035484;28;20219;-74
2021/12/12 12:26:52;;;;;;;37.77;13.30;;;14.30;88.40;;;;;;5035824;28;20661;-74
2021/12/12 12:30:03;;;;;;;84.70;15.30;;;14.40;88.50;;;;;;5035319;28;20211;-74
2021/12/12 12:33:30;;;;;;;84.97;16.53;;;14.40;88.70;;;;;;5030310;28;20200;-74
2021/12/12 12:36:40;;;;;;;85.40;15.07;;;14.40;88.50;;;;;;5036237;28;20651;-74
2021/12/12 12:39:54;;;;;;;41.80;11.70;;;14.50;88.60;;;;;;5036273;28;20294;-74
2021/12/12 12:42:58;;;;;;;64.43;13.50;;;14.50;88.60;;;;;;5033595;28;21034;-74
2021/12/12 12:46:11;;;;;;;44.10;11.10;;;14.50;88.60;;;;;;5036775;28;20706;-75
2021/12/12 12:49:26;;;;;;;38.27;11.70;;;14.60;88.60;;;;;;5036625;28;20196;-74
2021/12/12 12:52:16;;;;;;;46.03;10.87;;;14.60;88.50;;;;;;5033016;28;20204;-74
2021/12/12 12:54:48;;;;;;;45.90;12.50;;;14.70;88.40;;;;;;5036084;28;20319;-74
2021/12/12 12:57:24;;;;;;;43.47;11.53;;;14.70;88.30;;;;;;5034693;28;20208;-74
2021/12/12 13:00:07;;;;;;;63.83;12.67;;;14.70;88.20;;;;;;5034858;28;20204;-74
2021/12/12 13:02:59;;;;;;;57.07;11.83;;;14.80;88.30;;;;;;5033637;28;20671;-74
2021/12/12 13:06:03;;;;;;;54.10;11.63;;;14.80;88.20;;;;;;5030763;28;20226;-74
2021/12/12 13:09:00;;;;;;;42.67;10.40;;;14.80;88.20;;;;;;5036587;28;20583;-74
2021/12/12 13:11:37;;;;;;;96.30;15.03;;;14.90;88.00;;;;;;5032849;28;20259;-75